createdAt,value
2023-03-21T00:00:04.117Z,6.03
2023-03-21T00:03:07.491Z,5.80
2023-03-21T00:06:12.781Z,6.50
2023-03-21T00:09:15.674Z,5.40
2023-03-21T00:12:20.944Z,5.70
2023-03-21T00:18:52.424Z,4.78
2023-03-21T00:22:07.094Z,5.95
2023-03-21T00:25:11.698Z,5.60
2023-03-21T00:28:14.440Z,6.22
2023-03-21T00:31:19.576Z,5.03
2023-03-21T00:34:31.739Z,5.75
2023-03-21T00:41:18.820Z,5.30
2023-03-21T00:44:26.280Z,6.05
2023-03-21T00:47:30.567Z,5.63
2023-03-21T00:50:34.518Z,5.90
2023-03-21T00:53:37.215Z,6.47
2023-03-21T00:56:40.067Z,6.28
2023-03-21T00:59:42.771Z,6.10
2023-03-21T01:03:14.035Z,6.53
2023-03-21T01:06:20.369Z,7.50
2023-03-21T01:09:25.723Z,7.60
2023-03-21T01:12:28.572Z,7.72
2023-03-21T01:15:31.443Z,7.50
2023-03-21T01:18:38.319Z,7.37
2023-03-21T01:21:41.541Z,7.78
2023-03-21T01:24:53.814Z,8.00
2023-03-21T01:27:57.970Z,6.80
2023-03-21T01:31:03.802Z,8.07
2023-03-21T01:34:07.951Z,7.90
2023-03-21T01:37:10.875Z,7.95
2023-03-21T01:40:17.523Z,8.18
2023-03-21T01:43:24.680Z,8.07
2023-03-21T01:46:47.869Z,8.60
2023-03-21T01:50:02.944Z,8.17
2023-03-21T01:53:06.407Z,7.13
2023-03-21T01:56:15.001Z,8.07
2023-03-21T01:59:22.558Z,7.97
2023-03-21T02:02:28.857Z,8.60
2023-03-21T02:05:39.644Z,8.60
2023-03-21T02:08:42.909Z,9.40
2023-03-21T02:11:47.457Z,10.20
2023-03-21T02:14:51.727Z,10.35
2023-03-21T02:18:00.591Z,10.25
2023-03-21T02:21:35.824Z,9.80
2023-03-21T02:25:08.343Z,10.45
2023-03-21T02:28:21.048Z,10.63
2023-03-21T02:31:35.865Z,10.60
2023-03-21T02:34:53.985Z,10.98
2023-03-21T02:38:03.558Z,11.57
2023-03-21T02:41:19.018Z,11.95
2023-03-21T02:44:27.950Z,12.32
2023-03-21T02:47:35.944Z,11.55
2023-03-21T02:50:44.729Z,12.77
2023-03-21T02:54:13.007Z,12.87
2023-03-21T02:57:16.491Z,12.05
2023-03-21T03:00:23.169Z,12.98
2023-03-21T03:03:34.119Z,13.55
2023-03-21T03:06:49.189Z,14.50
2023-03-21T03:10:08.844Z,13.23
2023-03-21T03:13:22.861Z,13.63
2023-03-21T03:16:31.441Z,14.02
2023-03-21T03:19:49.416Z,11.75
2023-03-21T03:22:59.909Z,13.27
2023-03-21T03:26:09.662Z,13.87
2023-03-21T03:29:16.570Z,12.38
2023-03-21T03:32:23.754Z,12.05
2023-03-21T03:35:27.940Z,13.18
2023-03-21T03:38:32.782Z,12.38
2023-03-21T03:42:06.107Z,11.67
2023-03-21T03:45:07.770Z,12.15
2023-03-21T03:48:17.558Z,11.73
2023-03-21T03:51:24.985Z,12.85
2023-03-21T03:54:32.712Z,12.48
2023-03-21T03:57:37.748Z,12.17
2023-03-21T04:00:41.088Z,12.77
2023-03-21T04:07:07.799Z,11.15
2023-03-21T04:10:11.716Z,12.00
2023-03-21T04:13:15.970Z,12.00
2023-03-21T04:16:19.238Z,12.45
2023-03-21T04:19:22.191Z,12.02
2023-03-21T04:22:25.053Z,12.30
2023-03-21T04:25:34.000Z,12.05
2023-03-21T04:28:39.957Z,11.10
2023-03-21T04:31:42.693Z,11.80
2023-03-21T04:34:50.333Z,11.80
2023-03-21T04:37:53.154Z,11.52
2023-03-21T04:40:56.176Z,12.00
2023-03-21T04:44:00.354Z,11.17
2023-03-21T04:47:03.034Z,11.07
2023-03-21T04:50:06.975Z,12.05
2023-03-21T04:53:09.636Z,11.98
2023-03-21T04:56:12.762Z,11.75
2023-03-21T04:59:17.361Z,10.80
2023-03-21T05:02:20.139Z,10.90
2023-03-21T05:05:22.955Z,11.25
2023-03-21T05:08:26.071Z,11.65
2023-03-21T05:11:31.018Z,11.27
2023-03-21T05:14:35.291Z,11.33
2023-03-21T05:17:38.486Z,11.65
2023-03-21T05:20:43.656Z,10.18
2023-03-21T05:23:54.119Z,11.20
2023-03-21T05:27:02.691Z,10.68
2023-03-21T05:30:09.921Z,11.80
2023-03-21T05:33:13.410Z,10.60
2023-03-21T05:36:16.935Z,11.55
2023-03-21T05:39:20.835Z,12.48
2023-03-21T05:42:23.755Z,11.38
2023-03-21T05:45:29.207Z,11.10
2023-03-21T05:48:32.383Z,10.82
2023-03-21T05:51:35.513Z,10.93
2023-03-21T05:54:38.575Z,12.45
2023-03-21T05:57:41.446Z,12.00
2023-03-21T06:00:48.219Z,10.90
2023-03-21T06:03:51.781Z,10.90
2023-03-21T06:06:54.888Z,11.90
2023-03-21T06:09:58.659Z,11.55
2023-03-21T06:13:01.565Z,11.77
2023-03-21T06:16:06.313Z,11.37
2023-03-21T06:19:09.861Z,11.23
2023-03-21T06:22:12.676Z,11.77
2023-03-21T06:25:15.640Z,12.68
2023-03-21T06:28:18.447Z,12.32
2023-03-21T06:31:25.074Z,11.50
2023-03-21T06:34:28.977Z,12.85
2023-03-21T06:37:31.873Z,12.73
2023-03-21T06:40:34.804Z,11.95
2023-03-21T06:43:37.754Z,11.73
2023-03-21T06:46:42.340Z,11.63
2023-03-21T06:49:45.805Z,12.50
2023-03-21T06:52:49.625Z,12.60
2023-03-21T06:55:52.910Z,11.48
2023-03-21T06:58:57.192Z,11.85
2023-03-21T07:02:01.379Z,11.90
2023-03-21T07:05:04.470Z,11.85
2023-03-21T07:08:10.173Z,12.20
2023-03-21T07:11:13.123Z,11.60
2023-03-21T07:14:15.911Z,13.40
2023-03-21T07:17:20.472Z,12.93
2023-03-21T07:20:23.638Z,12.13
2023-03-21T07:23:27.421Z,12.43
2023-03-21T07:26:30.191Z,11.60
2023-03-21T07:29:33.288Z,12.55
2023-03-21T07:32:37.895Z,12.90
2023-03-21T07:35:41.849Z,13.13
2023-03-21T07:38:45.755Z,13.20
2023-03-21T07:41:49.730Z,13.95
2023-03-21T07:44:54.933Z,11.77
2023-03-21T07:47:59.092Z,11.57
2023-03-21T07:51:02.264Z,13.63
2023-03-21T07:54:05.527Z,12.63
2023-03-21T07:57:08.468Z,12.48
2023-03-21T08:00:12.567Z,12.60
2023-03-21T08:03:16.906Z,12.57
2023-03-21T08:06:19.642Z,12.35
2023-03-21T08:09:22.451Z,12.23
2023-03-21T08:12:25.400Z,12.43
2023-03-21T08:15:28.158Z,12.70
2023-03-21T08:18:32.456Z,11.97
2023-03-21T08:21:35.217Z,12.93
2023-03-21T08:24:38.061Z,12.73
2023-03-21T08:27:41.814Z,13.68
2023-03-21T08:30:44.544Z,12.40
2023-03-21T08:33:51.048Z,11.57
2023-03-21T08:36:54.487Z,11.27
2023-03-21T08:39:57.486Z,13.07
2023-03-21T08:43:00.837Z,11.02
2023-03-21T08:46:04.470Z,12.15
2023-03-21T08:49:08.614Z,11.43
2023-03-21T08:52:11.285Z,11.20
2023-03-21T08:55:14.928Z,12.43
2023-03-21T08:58:18.444Z,11.35
2023-03-21T09:01:21.247Z,12.45
2023-03-21T09:04:27.220Z,12.80
2023-03-21T09:07:33.888Z,11.90
2023-03-21T09:10:36.769Z,12.18
2023-03-21T09:13:39.655Z,11.65
2023-03-21T09:16:42.409Z,10.57
2023-03-21T09:19:47.471Z,10.83
2023-03-21T09:22:51.914Z,10.32
2023-03-21T09:25:54.834Z,10.00
2023-03-21T09:28:58.775Z,10.70
2023-03-21T09:32:01.660Z,10.98
2023-03-21T09:35:07.873Z,10.53
2023-03-21T09:38:10.664Z,9.90
2023-03-21T09:41:28.457Z,10.00
2023-03-21T09:44:44.983Z,10.30
2023-03-21T09:47:53.945Z,9.82
2023-03-21T09:50:58.801Z,11.27
2023-03-21T09:54:07.233Z,10.63
2023-03-21T09:57:19.816Z,23.20
2023-03-21T10:00:29.520Z,11.82
2023-03-21T10:03:35.625Z,10.95
2023-03-21T10:06:42.871Z,12.23
2023-03-21T10:09:47.252Z,21.92
2023-03-21T10:12:53.825Z,14.13
2023-03-21T10:15:58.719Z,14.88
2023-03-21T10:19:07.359Z,11.25
2023-03-21T10:22:11.602Z,11.60
2023-03-21T10:25:18.812Z,13.25
2023-03-21T10:28:23.870Z,13.80
2023-03-21T10:31:29.933Z,12.35
2023-03-21T10:34:36.844Z,12.25
2023-03-21T10:37:41.127Z,12.47
2023-03-21T10:40:43.988Z,11.60
2023-03-21T10:43:48.554Z,11.70
2023-03-21T10:46:53.667Z,11.65
2023-03-21T10:50:12.246Z,12.45
2023-03-21T10:53:21.697Z,11.33
2023-03-21T10:56:27.754Z,11.98
2023-03-21T10:59:38.910Z,16.08
2023-03-21T11:02:43.107Z,12.15
2023-03-21T11:05:46.383Z,9.48
2023-03-21T11:08:55.330Z,10.40
2023-03-21T11:12:05.822Z,9.18
2023-03-21T11:15:30.175Z,10.48
2023-03-21T11:18:33.315Z,8.80
2023-03-21T11:21:38.094Z,9.60
2023-03-21T11:24:47.216Z,8.20
2023-03-21T11:27:52.757Z,8.68
2023-03-21T11:30:57.839Z,9.40
2023-03-21T11:34:01.620Z,7.38
2023-03-21T11:37:04.515Z,7.57
2023-03-21T11:40:21.159Z,8.33
2023-03-21T11:43:29.378Z,8.15
2023-03-21T11:46:41.036Z,6.43
2023-03-21T11:49:43.778Z,8.57
2023-03-21T11:52:57.004Z,8.90
2023-03-21T11:56:12.264Z,8.47
2023-03-21T11:59:35.402Z,8.98
2023-03-21T12:03:05.200Z,9.73
2023-03-21T12:06:17.019Z,7.07
2023-03-21T12:09:30.484Z,8.50
2023-03-21T12:12:45.834Z,6.87
2023-03-21T12:15:56.970Z,8.00
2023-03-21T12:19:30.338Z,7.93
2023-03-21T12:22:40.472Z,8.43
2023-03-21T12:25:48.044Z,9.98
2023-03-21T12:29:07.479Z,7.13
2023-03-21T12:32:28.467Z,7.65
2023-03-21T12:35:45.944Z,7.55
2023-03-21T12:38:59.749Z,9.02
2023-03-21T12:42:27.496Z,8.57
2023-03-21T12:45:46.182Z,9.43
2023-03-21T12:48:52.874Z,7.95
2023-03-21T12:52:01.311Z,6.80
2023-03-21T12:55:14.949Z,7.40
2023-03-21T12:58:22.774Z,7.75
2023-03-21T13:01:29.657Z,8.30
2023-03-21T13:04:47.202Z,6.93
2023-03-21T13:07:54.870Z,5.95
2023-03-21T13:11:01.140Z,7.10
2023-03-21T13:14:08.692Z,6.07
2023-03-21T13:17:20.567Z,5.73
2023-03-21T13:20:30.765Z,5.50
2023-03-21T13:23:39.045Z,6.85
2023-03-21T13:26:46.153Z,5.63
2023-03-21T13:29:51.909Z,6.00
2023-03-21T13:33:07.004Z,6.60
2023-03-21T13:36:11.013Z,5.53
2023-03-21T13:39:20.913Z,6.78
2023-03-21T13:42:31.741Z,6.15
2023-03-21T13:45:47.244Z,5.75
2023-03-21T13:49:00.652Z,6.47
2023-03-21T13:52:24.764Z,6.95
2023-03-21T13:55:29.389Z,6.43
2023-03-21T13:58:38.703Z,5.72
2023-03-21T14:01:42.766Z,6.30
2023-03-21T14:05:04.195Z,6.07
2023-03-21T14:08:15.742Z,6.25
2023-03-21T14:11:23.841Z,6.60
2023-03-21T14:14:33.684Z,6.50
2023-03-21T14:17:36.902Z,6.80
2023-03-21T14:20:42.258Z,6.33
2023-03-21T14:23:45.226Z,5.60
2023-03-21T14:26:50.338Z,6.00
2023-03-21T14:29:53.356Z,5.40
2023-03-21T14:32:59.039Z,6.10
2023-03-21T14:36:08.809Z,5.53
2023-03-21T14:39:16.734Z,6.18
2023-03-21T14:42:20.800Z,5.80
2023-03-21T14:45:25.872Z,6.43
2023-03-21T14:48:32.029Z,6.15
2023-03-21T14:51:36.112Z,5.77
2023-03-21T14:54:41.362Z,6.00
2023-03-21T14:57:44.188Z,6.40
2023-03-21T15:00:49.787Z,5.57
2023-03-21T15:03:53.168Z,6.28
2023-03-21T15:06:59.179Z,5.23
2023-03-21T15:10:04.995Z,5.22
2023-03-21T15:13:17.131Z,5.60
2023-03-21T15:16:21.021Z,6.40
2023-03-21T15:19:30.004Z,7.63
2023-03-21T15:22:39.415Z,5.27
2023-03-21T15:25:43.084Z,4.93
2023-03-21T15:28:47.218Z,5.10
2023-03-21T15:31:50.058Z,5.75
2023-03-21T15:34:56.656Z,5.65
2023-03-21T15:38:01.084Z,6.43
2023-03-21T15:41:18.408Z,5.63
2023-03-21T15:44:23.381Z,5.65
2023-03-21T15:47:44.116Z,5.95
2023-03-21T15:50:53.357Z,5.50
2023-03-21T15:53:57.457Z,4.67
2023-03-21T15:57:04.793Z,5.28
2023-03-21T16:00:19.876Z,5.18
2023-03-21T16:03:25.820Z,5.47
2023-03-21T16:06:33.645Z,4.30
2023-03-21T16:09:44.629Z,4.33
2023-03-21T16:12:47.381Z,6.10
2023-03-21T16:15:50.412Z,4.88
2023-03-21T16:18:53.973Z,5.10
2023-03-21T16:21:56.959Z,4.45
2023-03-21T16:25:01.310Z,4.53
2023-03-21T16:28:04.213Z,4.40
2023-03-21T16:31:07.317Z,5.00
2023-03-21T16:34:10.744Z,5.18
2023-03-21T16:37:15.869Z,5.20
2023-03-21T16:40:27.550Z,4.47
2023-03-21T16:43:30.440Z,6.45
2023-03-21T16:46:33.191Z,6.90
2023-03-21T16:49:37.473Z,6.00
2023-03-21T16:52:40.208Z,6.22
2023-03-21T16:55:44.514Z,4.70
2023-03-21T16:58:50.088Z,6.00
2023-03-21T17:01:52.853Z,6.70
2023-03-21T17:04:55.699Z,7.57
2023-03-21T17:08:01.978Z,7.35
2023-03-21T17:11:06.494Z,5.35
2023-03-21T17:14:10.763Z,7.37
2023-03-21T17:17:14.248Z,7.22
2023-03-21T17:20:21.479Z,6.25
2023-03-21T17:23:24.246Z,6.72
2023-03-21T17:26:30.563Z,6.88
2023-03-21T17:29:33.431Z,6.40
2023-03-21T17:32:36.105Z,6.10
2023-03-21T17:35:39.382Z,6.35
2023-03-21T17:38:42.380Z,6.27
2023-03-21T17:41:46.483Z,6.50
2023-03-21T17:44:49.273Z,6.50
2023-03-21T17:47:52.622Z,6.60
2023-03-21T17:50:56.697Z,6.97
2023-03-21T17:53:59.544Z,6.60
2023-03-21T17:57:03.732Z,6.30
2023-03-21T18:00:12.251Z,7.88
2023-03-21T18:03:16.320Z,8.23
2023-03-21T18:06:22.038Z,8.50
2023-03-21T18:09:24.850Z,7.63
2023-03-21T18:12:29.039Z,7.97
2023-03-21T18:15:31.882Z,8.57
2023-03-21T18:18:35.278Z,8.13
2023-03-21T18:21:40.654Z,10.63
2023-03-21T18:24:43.416Z,9.23
2023-03-21T18:28:09.596Z,8.93
2023-03-21T18:31:19.078Z,9.57
2023-03-21T18:34:22.414Z,9.30
2023-03-21T18:37:25.483Z,9.48
2023-03-21T18:40:28.199Z,9.13
2023-03-21T18:46:55.458Z,9.90
2023-03-21T18:50:13.032Z,8.95
2023-03-21T18:53:16.441Z,9.43
2023-03-21T18:57:06.126Z,9.40
2023-03-21T18:59:44.704Z,10.20
2023-03-21T19:02:50.832Z,11.43
2023-03-21T19:05:59.102Z,11.98
2023-03-21T19:09:02.153Z,11.07
2023-03-21T19:12:05.105Z,11.30
2023-03-21T19:15:11.839Z,10.82
2023-03-21T19:21:37.472Z,10.70
2023-03-21T19:24:41.363Z,10.98
2023-03-21T19:27:44.628Z,10.77
2023-03-21T19:30:50.569Z,11.32
2023-03-21T19:33:54.040Z,11.02
2023-03-21T19:36:57.360Z,11.07
2023-03-21T19:40:00.322Z,11.43
2023-03-21T19:43:21.505Z,11.40
2023-03-21T19:46:27.383Z,11.10
2023-03-21T19:49:52.088Z,10.80
2023-03-21T19:52:53.802Z,11.38
2023-03-21T19:55:56.661Z,10.95
2023-03-21T19:58:59.839Z,11.87
2023-03-21T20:02:25.557Z,11.50
2023-03-21T20:05:27.344Z,12.43
2023-03-21T20:08:48.764Z,12.52
2023-03-21T20:11:54.688Z,12.57
2023-03-21T20:15:10.400Z,12.33
2023-03-21T20:18:24.079Z,11.90
2023-03-21T20:21:32.444Z,12.43
2023-03-21T20:24:38.736Z,12.60
2023-03-21T20:27:42.558Z,12.95
2023-03-21T20:30:47.296Z,11.90
2023-03-21T20:33:52.309Z,13.15
2023-03-21T20:36:55.195Z,12.48
2023-03-21T20:39:57.911Z,11.95
2023-03-21T20:43:28.499Z,12.30
2023-03-21T20:46:24.823Z,11.80
2023-03-21T20:49:29.560Z,12.63
2023-03-21T20:55:55.124Z,13.10
2023-03-21T20:59:12.252Z,13.87
2023-03-21T21:02:20.695Z,12.17
2023-03-21T21:05:30.688Z,13.70
2023-03-21T21:08:35.745Z,13.27
2023-03-21T21:15:01.902Z,13.33
2023-03-21T21:18:07.390Z,14.63
2023-03-21T21:21:13.920Z,13.80
2023-03-21T21:24:16.984Z,14.93
2023-03-21T21:27:19.788Z,14.75
2023-03-21T21:30:22.817Z,15.03
2023-03-21T21:33:29.156Z,16.73
2023-03-21T21:36:33.214Z,16.05
2023-03-21T21:39:37.931Z,14.50
2023-03-21T21:42:42.473Z,15.07
2023-03-21T21:45:45.676Z,14.43
2023-03-21T21:48:49.829Z,14.53
2023-03-21T21:51:54.200Z,13.93
2023-03-21T21:54:57.308Z,13.73
2023-03-21T21:58:00.994Z,15.00
2023-03-21T22:01:03.718Z,14.30
2023-03-21T22:04:08.711Z,14.60
2023-03-21T22:07:14.540Z,13.80
2023-03-21T22:10:17.588Z,15.00
2023-03-21T22:13:20.346Z,13.48
2023-03-21T22:16:23.264Z,14.50
2023-03-21T22:19:26.272Z,14.03
2023-03-21T22:22:30.941Z,13.60
2023-03-21T22:25:34.102Z,13.57
2023-03-21T22:28:40.501Z,14.30
2023-03-21T22:31:44.609Z,14.30
2023-03-21T22:34:47.564Z,14.23
2023-03-21T22:37:51.666Z,14.77
2023-03-21T22:40:55.756Z,13.48
2023-03-21T22:43:58.649Z,14.63
2023-03-21T22:47:02.044Z,14.33
2023-03-21T22:50:05.800Z,13.37
2023-03-21T22:53:10.382Z,14.07
2023-03-21T22:56:13.276Z,14.05
2023-03-21T22:59:16.028Z,13.48
2023-03-21T23:02:18.980Z,14.30
2023-03-21T23:05:21.781Z,13.50
2023-03-21T23:08:27.343Z,13.27
2023-03-21T23:11:30.215Z,13.95
2023-03-21T23:14:33.063Z,13.00
2023-03-21T23:17:36.136Z,13.40
2023-03-21T23:20:39.275Z,12.97
2023-03-21T23:23:50.096Z,12.20
2023-03-21T23:26:53.057Z,11.73
2023-03-21T23:29:56.839Z,12.35
2023-03-21T23:33:03.041Z,11.20
2023-03-21T23:36:06.809Z,12.93
2023-03-21T23:39:11.133Z,11.23
2023-03-21T23:42:13.829Z,10.90
2023-03-21T23:45:16.769Z,11.27
2023-03-21T23:48:19.552Z,11.20
2023-03-21T23:51:22.526Z,11.07
2023-03-21T23:54:26.762Z,10.23
2023-03-21T23:57:30.562Z,9.30
